sensor_id;sensor_type;location;lat;lon;timestamp;pressure;altitude;pressure_sealevel;temperature;humidity
54588;BME280;40484;50.198;19.576;2022-07-06T00:00:16;101824.05;;;21.63;58.48
54588;BME280;40484;50.198;19.576;2022-07-06T00:05:19;101824.34;;;21.75;57.91
54588;BME280;40484;50.198;19.576;2022-07-06T00:10:20;101826.74;;;21.51;58.42
54588;BME280;40484;50.198;19.576;2022-07-06T00:15:22;101821.62;;;21.59;58.26
54588;BME280;40484;50.198;19.576;2022-07-06T00:20:24;101822.80;;;21.56;58.34
54588;BME280;40484;50.198;19.576;2022-07-06T00:25:25;101825.70;;;21.35;58.83
54588;BME280;40484;50.198;19.576;2022-07-06T00:30:27;101822.56;;;21.19;59.38
54588;BME280;40484;50.198;19.576;2022-07-06T00:35:28;101816.35;;;21.22;59.67
54588;BME280;40484;50.198;19.576;2022-07-06T00:40:30;101817.84;;;21.22;59.71
54588;BME280;40484;50.198;19.576;2022-07-06T00:45:32;101815.02;;;21.31;59.55
54588;BME280;40484;50.198;19.576;2022-07-06T00:50:34;101806.99;;;21.23;59.74
54588;BME280;40484;50.198;19.576;2022-07-06T00:55:37;101807.07;;;21.36;59.26
54588;BME280;40484;50.198;19.576;2022-07-06T01:00:42;101812.73;;;21.22;59.50
54588;BME280;40484;50.198;19.576;2022-07-06T01:05:45;101810.41;;;21.07;60.17
54588;BME280;40484;50.198;19.576;2022-07-06T01:10:47;101812.98;;;21.13;60.30
54588;BME280;40484;50.198;19.576;2022-07-06T01:15:48;101821.05;;;21.04;60.49
54588;BME280;40484;50.198;19.576;2022-07-06T01:20:50;101826.00;;;20.93;61.15
54588;BME280;40484;50.198;19.576;2022-07-06T01:25:54;101828.65;;;20.81;61.65
54588;BME280;40484;50.198;19.576;2022-07-06T01:30:55;101833.38;;;20.70;61.96
54588;BME280;40484;50.198;19.576;2022-07-06T01:35:57;101842.53;;;20.49;62.68
54588;BME280;40484;50.198;19.576;2022-07-06T01:41:24;101842.03;;;20.18;63.91
54588;BME280;40484;50.198;19.576;2022-07-06T01:46:26;101833.48;;;20.14;64.13
54588;BME280;40484;50.198;19.576;2022-07-06T01:51:28;101829.26;;;20.23;63.98
54588;BME280;40484;50.198;19.576;2022-07-06T01:56:30;101824.77;;;20.17;64.25
54588;BME280;40484;50.198;19.576;2022-07-06T02:01:31;101834.89;;;20.26;63.64
54588;BME280;40484;50.198;19.576;2022-07-06T02:06:33;101826.27;;;20.07;63.99
54588;BME280;40484;50.198;19.576;2022-07-06T02:11:35;101824.65;;;20.04;63.96
54588;BME280;40484;50.198;19.576;2022-07-06T02:16:36;101822.52;;;20.04;63.90
54588;BME280;40484;50.198;19.576;2022-07-06T02:21:38;101818.12;;;20.03;64.00
54588;BME280;40484;50.198;19.576;2022-07-06T02:26:39;101815.59;;;20.37;62.94
54588;BME280;40484;50.198;19.576;2022-07-06T02:31:41;101821.62;;;20.50;62.53
54588;BME280;40484;50.198;19.576;2022-07-06T02:36:43;101816.62;;;20.57;62.05
54588;BME280;40484;50.198;19.576;2022-07-06T02:41:44;101812.73;;;20.60;61.67
54588;BME280;40484;50.198;19.576;2022-07-06T02:46:46;101801.16;;;20.90;60.92
54588;BME280;40484;50.198;19.576;2022-07-06T02:51:47;101815.45;;;20.77;60.85
54588;BME280;40484;50.198;19.576;2022-07-06T02:56:49;101834.16;;;20.46;61.41
54588;BME280;40484;50.198;19.576;2022-07-06T03:01:53;101831.49;;;20.35;61.96
54588;BME280;40484;50.198;19.576;2022-07-06T03:06:54;101836.51;;;20.37;62.01
54588;BME280;40484;50.198;19.576;2022-07-06T03:11:56;101846.91;;;20.53;61.44
54588;BME280;40484;50.198;19.576;2022-07-06T03:16:57;101840.17;;;20.43;61.59
54588;BME280;40484;50.198;19.576;2022-07-06T03:21:59;101843.68;;;20.80;60.85
54588;BME280;40484;50.198;19.576;2022-07-06T03:27:28;101846.58;;;21.06;59.86
54588;BME280;40484;50.198;19.576;2022-07-06T03:32:29;101846.50;;;20.94;59.88
54588;BME280;40484;50.198;19.576;2022-07-06T03:37:32;101850.51;;;20.77;60.16
54588;BME280;40484;50.198;19.576;2022-07-06T03:42:35;101849.44;;;21.10;59.52
54588;BME280;40484;50.198;19.576;2022-07-06T03:47:38;101856.43;;;21.41;58.76
54588;BME280;40484;50.198;19.576;2022-07-06T03:52:40;101852.83;;;21.56;57.43
54588;BME280;40484;50.198;19.576;2022-07-06T03:57:42;101861.20;;;21.12;58.15
54588;BME280;40484;50.198;19.576;2022-07-06T04:02:47;101870.39;;;21.01;58.22
54588;BME280;40484;50.198;19.576;2022-07-06T04:07:49;101871.08;;;20.74;58.80
54588;BME280;40484;50.198;19.576;2022-07-06T04:12:50;101869.35;;;21.08;58.03
54588;BME280;40484;50.198;19.576;2022-07-06T04:17:52;101868.15;;;21.05;58.04
54588;BME280;40484;50.198;19.576;2022-07-06T04:22:55;101864.70;;;21.39;57.67
54588;BME280;40484;50.198;19.576;2022-07-06T04:28:01;101879.62;;;21.50;56.99
54588;BME280;40484;50.198;19.576;2022-07-06T04:33:02;101878.95;;;21.59;57.20
54588;BME280;40484;50.198;19.576;2022-07-06T04:38:08;101887.62;;;21.52;57.28
54588;BME280;40484;50.198;19.576;2022-07-06T04:43:11;101889.66;;;21.61;57.38
54588;BME280;40484;50.198;19.576;2022-07-06T04:48:13;101895.72;;;21.93;56.93
54588;BME280;40484;50.198;19.576;2022-07-06T04:53:14;101892.48;;;22.17;56.98
54588;BME280;40484;50.198;19.576;2022-07-06T04:58:44;101892.98;;;22.60;56.13
54588;BME280;40484;50.198;19.576;2022-07-06T05:03:46;101904.09;;;22.83;54.89
54588;BME280;40484;50.198;19.576;2022-07-06T05:08:47;101902.30;;;22.79;55.20
54588;BME280;40484;50.198;19.576;2022-07-06T05:13:49;101910.68;;;22.89;53.81
54588;BME280;40484;50.198;19.576;2022-07-06T05:18:51;101913.52;;;22.54;54.69
54588;BME280;40484;50.198;19.576;2022-07-06T05:23:52;101926.56;;;22.17;53.98
54588;BME280;40484;50.198;19.576;2022-07-06T05:28:54;101927.02;;;21.65;54.88
54588;BME280;40484;50.198;19.576;2022-07-06T05:33:56;101924.48;;;21.49;55.69
54588;BME280;40484;50.198;19.576;2022-07-06T05:38:57;101924.88;;;21.35;56.69
54588;BME280;40484;50.198;19.576;2022-07-06T05:43:59;101936.57;;;21.48;56.77
54588;BME280;40484;50.198;19.576;2022-07-06T05:49:01;101938.30;;;21.39;56.68
54588;BME280;40484;50.198;19.576;2022-07-06T05:54:41;101936.48;;;21.60;56.08
54588;BME280;40484;50.198;19.576;2022-07-06T05:59:42;101947.10;;;22.17;55.77
54588;BME280;40484;50.198;19.576;2022-07-06T06:04:44;101938.27;;;22.68;55.50
54588;BME280;40484;50.198;19.576;2022-07-06T06:09:46;101937.71;;;22.99;54.84
54588;BME280;40484;50.198;19.576;2022-07-06T06:15:12;101941.45;;;23.55;53.88
54588;BME280;40484;50.198;19.576;2022-07-06T06:20:15;101938.48;;;23.25;52.44
54588;BME280;40484;50.198;19.576;2022-07-06T06:25:26;101942.59;;;22.47;53.73
54588;BME280;40484;50.198;19.576;2022-07-06T06:30:20;101946.92;;;21.94;54.72
54588;BME280;40484;50.198;19.576;2022-07-06T06:35:21;101940.72;;;21.73;54.43
54588;BME280;40484;50.198;19.576;2022-07-06T06:40:23;101944.77;;;21.80;54.54
54588;BME280;40484;50.198;19.576;2022-07-06T06:45:25;101954.61;;;22.20;54.26
54588;BME280;40484;50.198;19.576;2022-07-06T06:50:27;101957.16;;;22.47;53.14
54588;BME280;40484;50.198;19.576;2022-07-06T06:55:29;101952.17;;;23.04;53.60
54588;BME280;40484;50.198;19.576;2022-07-06T07:00:30;101955.31;;;23.17;52.97
54588;BME280;40484;50.198;19.576;2022-07-06T07:05:32;101953.59;;;22.80;53.56
54588;BME280;40484;50.198;19.576;2022-07-06T07:10:34;101962.96;;;22.38;54.88
54588;BME280;40484;50.198;19.576;2022-07-06T07:15:35;101959.72;;;21.91;55.47
54588;BME280;40484;50.198;19.576;2022-07-06T07:20:37;101958.07;;;21.81;55.58
54588;BME280;40484;50.198;19.576;2022-07-06T07:25:39;101958.77;;;22.23;54.45
54588;BME280;40484;50.198;19.576;2022-07-06T07:30:41;101958.87;;;22.34;52.83
54588;BME280;40484;50.198;19.576;2022-07-06T07:35:42;101967.67;;;22.23;54.81
54588;BME280;40484;50.198;19.576;2022-07-06T07:40:44;101974.28;;;21.77;56.08
54588;BME280;40484;50.198;19.576;2022-07-06T07:45:46;101995.33;;;21.66;56.36
54588;BME280;40484;50.198;19.576;2022-07-06T07:50:48;101996.58;;;21.34;57.17
54588;BME280;40484;50.198;19.576;2022-07-06T07:55:50;101999.81;;;21.32;57.42
54588;BME280;40484;50.198;19.576;2022-07-06T08:01:16;102005.63;;;21.53;57.68
54588;BME280;40484;50.198;19.576;2022-07-06T08:06:18;102016.62;;;21.02;58.94
54588;BME280;40484;50.198;19.576;2022-07-06T08:11:21;102017.88;;;20.46;59.99
54588;BME280;40484;50.198;19.576;2022-07-06T08:37:58;102026.24;;;20.50;60.42
54588;BME280;40484;50.198;19.576;2022-07-06T08:43:28;102028.67;;;20.75;59.98
54588;BME280;40484;50.198;19.576;2022-07-06T08:48:37;102043.40;;;20.78;58.48
54588;BME280;40484;50.198;19.576;2022-07-06T08:53:36;102039.48;;;20.83;58.46
54588;BME280;40484;50.198;19.576;2022-07-06T08:58:38;102049.73;;;20.87;58.79
54588;BME280;40484;50.198;19.576;2022-07-06T09:03:42;102050.80;;;20.87;58.59
54588;BME280;40484;50.198;19.576;2022-07-06T09:08:45;102055.05;;;21.04;57.35
54588;BME280;40484;50.198;19.576;2022-07-06T09:13:47;102049.73;;;20.97;55.99
54588;BME280;40484;50.198;19.576;2022-07-06T09:18:49;102046.95;;;20.98;55.99
54588;BME280;40484;50.198;19.576;2022-07-06T09:23:58;102041.20;;;21.17;56.12
54588;BME280;40484;50.198;19.576;2022-07-06T09:29:00;102034.23;;;21.25;54.95
54588;BME280;40484;50.198;19.576;2022-07-06T09:34:04;102030.59;;;21.69;54.24
54588;BME280;40484;50.198;19.576;2022-07-06T09:39:27;102020.49;;;21.66;52.79
54588;BME280;40484;50.198;19.576;2022-07-06T09:44:30;102010.45;;;21.70;52.99
54588;BME280;40484;50.198;19.576;2022-07-06T09:49:33;102011.18;;;21.97;52.46
54588;BME280;40484;50.198;19.576;2022-07-06T09:54:59;101996.37;;;22.26;52.60
54588;BME280;40484;50.198;19.576;2022-07-06T10:00:00;102006.73;;;22.34;51.75
54588;BME280;40484;50.198;19.576;2022-07-06T10:05:03;102002.05;;;22.41;50.36
54588;BME280;40484;50.198;19.576;2022-07-06T10:10:06;102000.45;;;22.78;51.05
54588;BME280;40484;50.198;19.576;2022-07-06T10:15:09;101994.11;;;22.72;50.84
54588;BME280;40484;50.198;19.576;2022-07-06T10:20:11;101984.41;;;22.63;48.94
54588;BME280;40484;50.198;19.576;2022-07-06T10:25:17;101987.48;;;22.81;48.56
54588;BME280;40484;50.198;19.576;2022-07-06T10:30:20;101983.58;;;22.96;47.58
54588;BME280;40484;50.198;19.576;2022-07-06T10:35:22;101995.71;;;22.68;47.92
54588;BME280;40484;50.198;19.576;2022-07-06T10:40:31;102005.84;;;22.63;48.23
54588;BME280;40484;50.198;19.576;2022-07-06T10:46:11;102001.52;;;22.78;46.90
54588;BME280;40484;50.198;19.576;2022-07-06T10:51:25;102003.99;;;22.94;46.71
54588;BME280;40484;50.198;19.576;2022-07-06T10:56:52;102008.14;;;23.22;45.53
54588;BME280;40484;50.198;19.576;2022-07-06T11:02:19;102008.38;;;23.34;45.87
54588;BME280;40484;50.198;19.576;2022-07-06T11:07:19;102020.14;;;23.25;44.64
54588;BME280;40484;50.198;19.576;2022-07-06T11:12:22;102020.08;;;23.40;45.16
54588;BME280;40484;50.198;19.576;2022-07-06T11:17:24;102028.42;;;23.32;45.89
54588;BME280;40484;50.198;19.576;2022-07-06T11:22:26;102028.57;;;23.46;44.30
54588;BME280;40484;50.198;19.576;2022-07-06T11:27:30;102027.61;;;23.49;42.50
54588;BME280;40484;50.198;19.576;2022-07-06T11:32:32;102021.10;;;23.65;43.86
54588;BME280;40484;50.198;19.576;2022-07-06T11:37:33;102025.11;;;23.73;44.75
54588;BME280;40484;50.198;19.576;2022-07-06T11:42:35;102032.79;;;23.83;44.57
54588;BME280;40484;50.198;19.576;2022-07-06T11:47:37;102032.73;;;23.66;43.64
54588;BME280;40484;50.198;19.576;2022-07-06T11:52:39;102040.59;;;23.36;44.88
54588;BME280;40484;50.198;19.576;2022-07-06T11:57:41;102053.11;;;23.42;45.84
54588;BME280;40484;50.198;19.576;2022-07-06T12:02:58;102042.24;;;23.37;45.54
54588;BME280;40484;50.198;19.576;2022-07-06T12:07:46;102046.06;;;23.68;45.57
54588;BME280;40484;50.198;19.576;2022-07-06T12:12:48;102035.84;;;24.27;42.72
54588;BME280;40484;50.198;19.576;2022-07-06T12:18:16;102036.04;;;24.61;41.90
54588;BME280;40484;50.198;19.576;2022-07-06T12:23:17;102036.73;;;24.50;42.66
54588;BME280;40484;50.198;19.576;2022-07-06T12:28:23;102029.96;;;24.36;43.70
54588;BME280;40484;50.198;19.576;2022-07-06T12:33:25;102031.77;;;24.05;42.02
54588;BME280;40484;50.198;19.576;2022-07-06T12:38:28;102027.58;;;24.09;42.09
54588;BME280;40484;50.198;19.576;2022-07-06T12:43:41;102020.97;;;23.69;42.95
54588;BME280;40484;50.198;19.576;2022-07-06T12:48:56;102026.49;;;23.51;43.51
54588;BME280;40484;50.198;19.576;2022-07-06T12:54:14;102027.04;;;23.48;43.23
54588;BME280;40484;50.198;19.576;2022-07-06T12:59:21;102024.11;;;23.46;43.84
54588;BME280;40484;50.198;19.576;2022-07-06T13:04:20;102023.43;;;23.72;42.84
54588;BME280;40484;50.198;19.576;2022-07-06T13:09:23;102023.83;;;24.24;41.87
54588;BME280;40484;50.198;19.576;2022-07-06T13:14:27;102015.80;;;24.12;40.28
54588;BME280;40484;50.198;19.576;2022-07-06T13:19:55;102033.79;;;24.31;40.30
54588;BME280;40484;50.198;19.576;2022-07-06T13:30:02;102043.34;;;23.97;43.47
54588;BME280;40484;50.198;19.576;2022-07-06T21:32:19;102124.60;;;21.30;46.44
54588;BME280;40484;50.198;19.576;2022-07-06T21:37:21;102126.86;;;21.24;46.52
54588;BME280;40484;50.198;19.576;2022-07-06T21:42:25;102123.06;;;21.05;46.41
54588;BME280;40484;50.198;19.576;2022-07-06T21:47:26;102115.17;;;20.91;46.49
54588;BME280;40484;50.198;19.576;2022-07-06T21:52:28;102109.00;;;20.73;46.55
54588;BME280;40484;50.198;19.576;2022-07-06T21:57:29;102111.16;;;20.61;46.83
54588;BME280;40484;50.198;19.576;2022-07-06T22:02:31;102114.27;;;20.74;46.70
54588;BME280;40484;50.198;19.576;2022-07-06T22:07:33;102107.92;;;20.83;46.60
54588;BME280;40484;50.198;19.576;2022-07-06T22:12:35;102101.22;;;20.71;46.56
54588;BME280;40484;50.198;19.576;2022-07-06T22:17:37;102106.91;;;20.62;46.91
54588;BME280;40484;50.198;19.576;2022-07-06T22:22:38;102102.22;;;20.43;46.56
54588;BME280;40484;50.198;19.576;2022-07-06T22:27:40;102095.80;;;20.16;47.12
54588;BME280;40484;50.198;19.576;2022-07-06T22:32:42;102100.84;;;20.37;46.92
54588;BME280;40484;50.198;19.576;2022-07-06T22:37:43;102097.45;;;20.29;46.55
54588;BME280;40484;50.198;19.576;2022-07-06T22:42:45;102090.05;;;20.29;46.70
54588;BME280;40484;50.198;19.576;2022-07-06T22:47:47;102093.87;;;20.18;46.55
54588;BME280;40484;50.198;19.576;2022-07-06T22:52:48;102086.31;;;20.03;46.55
54588;BME280;40484;50.198;19.576;2022-07-06T22:57:50;102085.14;;;19.99;46.82
54588;BME280;40484;50.198;19.576;2022-07-06T23:02:51;102089.34;;;20.11;46.65
54588;BME280;40484;50.198;19.576;2022-07-06T23:07:53;102092.76;;;20.10;46.52
54588;BME280;40484;50.198;19.576;2022-07-06T23:12:55;102101.41;;;20.09;46.64
54588;BME280;40484;50.198;19.576;2022-07-06T23:18:21;102101.17;;;20.21;46.25
54588;BME280;40484;50.198;19.576;2022-07-06T23:23:22;102099.84;;;20.24;46.19
54588;BME280;40484;50.198;19.576;2022-07-06T23:28:24;102102.78;;;20.26;46.05
54588;BME280;40484;50.198;19.576;2022-07-06T23:33:26;102106.91;;;20.20;46.01
54588;BME280;40484;50.198;19.576;2022-07-06T23:38:27;102101.43;;;19.97;46.06
54588;BME280;40484;50.198;19.576;2022-07-06T23:43:29;102094.24;;;19.75;46.11
54588;BME280;40484;50.198;19.576;2022-07-06T23:48:30;102091.81;;;19.56;46.23
54588;BME280;40484;50.198;19.576;2022-07-06T23:53:32;102094.50;;;19.58;46.54
54588;BME280;40484;50.198;19.576;2022-07-06T23:58:34;102086.66;;;19.60;46.58
